Time;durP1;ratioP1;P1;durP2;ratioP2;P2;SDS_P1;SDS_P2;PMS_P1;PMS_P2;Temp;Humidity;BMP_temperature;BMP_pressure;BME280_temperature;BME280_humidity;BME280_pressure;Samples;Min_cycle;Max_cycle;Signal;HPM_P1;HPM_P2
2024/03/08 00:09:54;;;;;;;;;;;2.90;99.90;;;;;;21049983;28;19923;-80
2024/03/08 00:19:55;;;;;;;;;;;2.90;99.90;;;;;;21070582;28;20445;-77
2024/03/08 00:29:55;;;;;;;;;;;2.70;99.90;;;;;;21086793;28;19912;-78
2024/03/08 00:39:56;;;;;;;;;;;2.60;99.90;;;;;;21092911;28;19916;-79
2024/03/08 00:49:57;;;;;;;;;;;2.90;99.90;;;;;;21103741;28;19912;-79
2024/03/08 00:59:58;;;;;;;;;;;3.10;99.90;;;;;;21100074;28;19916;-79
2024/03/08 01:09:58;;;;;;;;;;;3.20;99.90;;;;;;21078380;28;19924;-79
2024/03/08 01:19:59;;;;;;;;;;;3.10;99.90;;;;;;21107087;28;20108;-78
2024/03/08 01:29:59;;;;;;;;;;;3.00;99.90;;;;;;21101399;28;19957;-78
2024/03/08 01:40:00;;;;;;;;;;;2.90;99.90;;;;;;21105423;28;19922;-79
2024/03/08 01:50:02;;;;;;;;;;;2.90;99.90;;;;;;21093833;28;20290;-80
2024/03/08 02:00:03;;;;;;;;;;;2.80;99.90;;;;;;21099343;28;19951;-79
2024/03/08 02:10:06;;;;;;;;;;;2.90;99.90;;;;;;21106025;28;19951;-79
2024/03/08 02:20:08;;;;;;;;;;;2.90;99.90;;;;;;21103934;28;19916;-78
2024/03/08 02:30:12;;;;;;;;;;;3.00;99.90;;;;;;21107341;28;20291;-78
2024/03/08 02:40:13;;;;;;;;;;;3.00;99.90;;;;;;21087837;28;19925;-78
2024/03/08 02:50:16;;;;;;;;;;;3.00;99.90;;;;;;21085798;28;19919;-79
2024/03/08 03:00:16;;;;;;;;;;;3.00;99.90;;;;;;21073967;28;19916;-79
2024/03/08 03:10:17;;;;;;;;;;;2.90;99.90;;;;;;21093694;28;19916;-79
2024/03/08 03:20:32;;;;;;;;;;;3.00;99.90;;;;;;21097017;28;19955;-79
2024/03/08 03:30:33;;;;;;;;;;;3.00;99.90;;;;;;21077181;28;19923;-78
2024/03/08 03:40:34;;;;;;;;;;;3.00;99.90;;;;;;21084020;28;20374;-77
2024/03/08 03:50:35;;;;;;;;;;;3.10;99.90;;;;;;21080986;28;19912;-78
2024/03/08 04:00:35;;;;;;;;;;;3.10;99.90;;;;;;21093434;28;19958;-79
2024/03/08 04:10:36;;;;;;;;;;;3.20;99.90;;;;;;21094787;28;20374;-78
2024/03/08 04:20:37;;;;;;;;;;;3.20;99.90;;;;;;21098305;28;19951;-79
2024/03/08 04:30:40;;;;;;;;;;;3.20;99.90;;;;;;21109939;28;19916;-78
2024/03/08 04:40:41;;;;;;;;;;;3.20;99.90;;;;;;21091618;28;20003;-79
2024/03/08 04:50:42;;;;;;;;;;;3.30;99.90;;;;;;21082683;28;19924;-78
2024/03/08 05:00:42;;;;;;;;;;;3.30;99.90;;;;;;21055890;28;19927;-78
2024/03/08 05:10:43;;;;;;;;;;;3.30;99.90;;;;;;21101434;28;19971;-79
2024/03/08 05:20:43;;;;;;;;;;;3.30;99.90;;;;;;21097815;28;20383;-78
2024/03/08 05:30:44;;;;;;;;;;;3.30;99.90;;;;;;21092730;28;19919;-79
2024/03/08 05:40:45;;;;;;;;;;;3.20;99.90;;;;;;21101239;28;19923;-79
2024/03/08 05:50:45;;;;;;;;;;;3.20;99.90;;;;;;21103517;28;20431;-78
2024/03/08 06:00:46;;;;;;;;;;;3.20;99.90;;;;;;21080999;28;19916;-78
2024/03/08 06:10:50;;;;;;;;;;;3.10;99.90;;;;;;21097909;28;19973;-79
2024/03/08 06:20:51;;;;;;;;;;;3.10;99.90;;;;;;21096801;28;19924;-79
2024/03/08 06:30:51;;;;;;;;;;;3.20;99.90;;;;;;21100074;28;19959;-79
2024/03/08 06:40:52;;;;;;;;;;;3.20;99.90;;;;;;21071702;28;19916;-79
2024/03/08 06:50:53;;;;;;;;;;;3.30;99.90;;;;;;21081290;28;19916;-79
2024/03/08 07:00:58;;;;;;;;;;;3.30;99.90;;;;;;21077222;28;19983;-78
2024/03/08 07:10:58;;;;;;;;;;;3.40;99.90;;;;;;21071250;28;19939;-80
2024/03/08 07:20:59;;;;;;;;;;;3.40;99.90;;;;;;21062961;28;19919;-77
2024/03/08 07:41:13;;;;;;;;;;;3.70;99.90;;;;;;21090072;28;19946;-78
2024/03/08 07:51:17;;;;;;;;;;;3.70;99.90;;;;;;21086088;28;19916;-78
2024/03/08 08:01:18;;;;;;;;;;;3.80;99.90;;;;;;21085251;28;19922;-77
2024/03/08 08:11:20;;;;;;;;;;;4.00;99.90;;;;;;21081355;28;20260;-78
2024/03/08 08:21:24;;;;;;;;;;;4.00;99.90;;;;;;21087744;28;19923;-78
2024/03/08 08:31:26;;;;;;;;;;;4.30;99.90;;;;;;21067866;28;20305;-78
2024/03/08 08:41:27;;;;;;;;;;;4.30;99.90;;;;;;21085515;28;20375;-78
2024/03/08 08:51:27;;;;;;;;;;;4.20;99.90;;;;;;21086918;28;19916;-79
2024/03/08 09:01:28;;;;;;;;;;;4.60;99.90;;;;;;21097326;28;19938;-79
2024/03/08 09:11:29;;;;;;;;;;;4.70;99.90;;;;;;21104538;28;19916;-78
2024/03/08 09:21:31;;;;;;;;;;;4.80;99.90;;;;;;21120157;28;20015;-79
2024/03/08 09:31:32;;;;;;;;;;;4.90;99.90;;;;;;21117630;28;20504;-79
2024/03/08 09:41:33;;;;;;;;;;;5.70;99.90;;;;;;21108256;28;19916;-78
2024/03/08 09:51:40;;;;;;;;;;;5.60;99.90;;;;;;21085020;28;20446;-77
2024/03/08 10:01:41;;;;;;;;;;;6.10;99.90;;;;;;21084881;28;19944;-77
2024/03/08 10:11:42;;;;;;;;;;;6.00;99.90;;;;;;21093720;28;19978;-79
2024/03/08 10:21:49;;;;;;;;;;;6.10;99.90;;;;;;21063130;28;20014;-79
2024/03/08 10:31:50;;;;;;;;;;;6.50;99.90;;;;;;21088994;28;19995;-78
2024/03/08 10:42:02;;;;;;;;;;;6.80;99.90;;;;;;21096548;28;20383;-77
2024/03/08 10:52:08;;;;;;;;;;;7.20;99.90;;;;;;21084421;28;20375;-77
2024/03/08 11:02:11;;;;;;;;;;;7.10;99.90;;;;;;21060795;28;19917;-78
2024/03/08 11:12:26;;;;;;;;;;;8.40;99.90;;;;;;21050821;28;20178;-80
2024/03/08 11:22:32;;;;;;;;;;;9.50;99.90;;;;;;21043713;28;19966;-80
2024/03/08 11:32:33;;;;;;;;;;;9.60;99.90;;;;;;21042436;28;19912;-79
2024/03/08 11:42:35;;;;;;;;;;;10.60;99.90;;;;;;21060202;28;20406;-79
2024/03/08 11:52:35;;;;;;;;;;;11.10;99.90;;;;;;21048668;28;20054;-77
2024/03/08 12:02:38;;;;;;;;;;;11.50;99.90;;;;;;21055986;28;19924;-77
2024/03/08 12:12:39;;;;;;;;;;;11.70;99.90;;;;;;21055844;28;19920;-78
2024/03/08 12:22:46;;;;;;;;;;;10.30;99.90;;;;;;21028657;28;19943;-78
2024/03/08 12:32:54;;;;;;;;;;;12.10;99.90;;;;;;21033780;28;19965;-79
2024/03/08 12:42:55;;;;;;;;;;;11.30;99.90;;;;;;21042442;28;19917;-81
2024/03/08 12:52:57;;;;;;;;;;;11.20;99.90;;;;;;21047836;28;19920;-80
2024/03/08 13:02:58;;;;;;;;;;;11.90;99.90;;;;;;21050245;28;19923;-79
2024/03/08 13:12:59;;;;;;;;;;;12.10;99.90;;;;;;21049224;28;19916;-78
2024/03/08 13:23:01;;;;;;;;;;;11.90;99.90;;;;;;21041461;28;20375;-80
2024/03/08 13:33:04;;;;;;;;;;;12.00;99.90;;;;;;21035001;28;19980;-79
2024/03/08 13:43:05;;;;;;;;;;;11.20;99.90;;;;;;21088483;28;20363;-80
2024/03/08 13:53:06;;;;;;;;;;;11.70;99.90;;;;;;21116685;28;19920;-79
2024/03/08 14:03:07;;;;;;;;;;;11.20;99.90;;;;;;21114124;28;19915;-78
2024/03/08 14:13:08;;;;;;;;;;;11.00;99.90;;;;;;21103638;28;20007;-79
2024/03/08 14:23:09;;;;;;;;;;;11.20;99.90;;;;;;21086685;28;19917;-77
2024/03/08 14:33:09;;;;;;;;;;;10.40;99.90;;;;;;21066508;28;19912;-79
2024/03/08 14:43:10;;;;;;;;;;;11.00;99.90;;;;;;21095051;28;19916;-80
2024/03/08 14:53:12;;;;;;;;;;;11.00;99.90;;;;;;21110266;28;19919;-79
2024/03/08 15:03:16;;;;;;;;;;;9.90;99.90;;;;;;21108824;28;19983;-79
2024/03/08 15:13:20;;;;;;;;;;;11.00;99.90;;;;;;21099991;28;19916;-80
2024/03/08 15:23:21;;;;;;;;;;;11.70;99.90;;;;;;21104347;28;19923;-79
2024/03/08 15:33:26;;;;;;;;;;;11.60;99.90;;;;;;21093316;28;19913;-79
2024/03/08 15:43:27;;;;;;;;;;;10.90;99.90;;;;;;21098409;28;19916;-79
2024/03/08 15:53:30;;;;;;;;;;;9.40;99.90;;;;;;21086840;28;19951;-79
2024/03/08 16:03:32;;;;;;;;;;;8.70;99.90;;;;;;21061630;28;20402;-81
2024/03/08 16:13:37;;;;;;;;;;;8.20;99.90;;;;;;21109619;28;20568;-82
2024/03/08 16:23:38;;;;;;;;;;;7.70;99.90;;;;;;21092891;28;19916;-81
2024/03/08 16:33:39;;;;;;;;;;;7.20;99.90;;;;;;21116095;28;19920;-78
2024/03/08 16:43:40;;;;;;;;;;;7.10;99.90;;;;;;21075677;28;20006;-78
2024/03/08 16:53:42;;;;;;;;;;;6.90;99.90;;;;;;21046311;28;20263;-77
2024/03/08 17:03:45;;;;;;;;;;;6.70;99.90;;;;;;21029844;28;20429;-78
2024/03/08 17:13:47;;;;;;;;;;;6.60;99.90;;;;;;21028827;28;19952;-78
2024/03/08 17:23:47;;;;;;;;;;;6.40;99.90;;;;;;21034012;28;19916;-77
2024/03/08 17:33:48;;;;;;;;;;;6.40;99.90;;;;;;21039389;28;20386;-78
2024/03/08 17:43:50;;;;;;;;;;;6.40;99.90;;;;;;21034575;28;19916;-78
2024/03/08 17:53:51;;;;;;;;;;;6.40;99.90;;;;;;21020144;28;19984;-78
2024/03/08 18:03:52;;;;;;;;;;;6.40;99.90;;;;;;21020055;28;19960;-78
2024/03/08 18:13:53;;;;;;;;;;;6.50;99.90;;;;;;21028710;28;19958;-78
2024/03/08 18:23:55;;;;;;;;;;;6.40;99.90;;;;;;21009640;28;19920;-78
2024/03/08 18:33:56;;;;;;;;;;;6.40;99.90;;;;;;21015936;28;20002;-78
2024/03/08 18:43:57;;;;;;;;;;;6.30;99.90;;;;;;21023105;28;19939;-78
2024/03/08 18:53:58;;;;;;;;;;;6.20;99.90;;;;;;21033126;28;19920;-78
2024/03/08 19:03:58;;;;;;;;;;;6.10;99.90;;;;;;21029494;28;19926;-78
2024/03/08 19:13:59;;;;;;;;;;;6.00;99.90;;;;;;21037719;28;19917;-78
2024/03/08 19:24:00;;;;;;;;;;;6.00;99.90;;;;;;21026610;28;20286;-78
2024/03/08 19:34:00;;;;;;;;;;;6.00;99.90;;;;;;21038479;28;19965;-78
2024/03/08 19:44:02;;;;;;;;;;;6.00;99.90;;;;;;21019757;28;19989;-78
2024/03/08 19:54:03;;;;;;;;;;;5.90;99.90;;;;;;21033694;28;19919;-78
2024/03/08 20:04:04;;;;;;;;;;;5.80;99.90;;;;;;21046872;28;20423;-78
2024/03/08 20:14:06;;;;;;;;;;;5.60;99.90;;;;;;21031957;28;20398;-78
2024/03/08 20:24:09;;;;;;;;;;;5.50;99.90;;;;;;21037842;28;19916;-78
2024/03/08 20:34:09;;;;;;;;;;;5.30;99.90;;;;;;21039549;28;19937;-78
2024/03/08 20:44:10;;;;;;;;;;;5.40;99.90;;;;;;21023086;28;19969;-78
2024/03/08 20:54:10;;;;;;;;;;;5.20;99.90;;;;;;21024634;28;19913;-78
2024/03/08 21:04:12;;;;;;;;;;;5.10;99.90;;;;;;21069085;28;19923;-78
2024/03/08 21:14:14;;;;;;;;;;;4.90;99.90;;;;;;21058424;28;19916;-78
2024/03/08 21:24:14;;;;;;;;;;;4.80;99.90;;;;;;21046275;28;19928;-78
2024/03/08 21:34:15;;;;;;;;;;;4.80;99.90;;;;;;21058635;28;20256;-76
2024/03/08 21:44:16;;;;;;;;;;;4.80;99.90;;;;;;21034213;28;19916;-78
2024/03/08 21:54:17;;;;;;;;;;;5.00;99.90;;;;;;21042935;28;20032;-78
2024/03/08 22:04:19;;;;;;;;;;;4.90;99.90;;;;;;21037768;28;19917;-77
2024/03/08 22:14:23;;;;;;;;;;;4.90;99.90;;;;;;21041065;28;19920;-78
2024/03/08 22:24:23;;;;;;;;;;;4.90;99.90;;;;;;21030739;28;19920;-78
2024/03/08 22:34:24;;;;;;;;;;;4.80;99.90;;;;;;21042598;28;19923;-79
2024/03/08 22:44:26;;;;;;;;;;;5.00;99.90;;;;;;21047066;28;20002;-79
2024/03/08 22:54:27;;;;;;;;;;;4.90;99.90;;;;;;21041895;28;19913;-78
2024/03/08 23:04:28;;;;;;;;;;;4.80;99.90;;;;;;21021718;28;20022;-78
2024/03/08 23:14:28;;;;;;;;;;;4.80;99.90;;;;;;21047452;28;20016;-79
2024/03/08 23:24:30;;;;;;;;;;;4.90;99.90;;;;;;21046804;28;19916;-78
2024/03/08 23:34:31;;;;;;;;;;;5.00;99.90;;;;;;21039194;28;19916;-78
2024/03/08 23:44:32;;;;;;;;;;;4.80;99.90;;;;;;21039742;28;20295;-78
2024/03/08 23:54:32;;;;;;;;;;;4.80;99.90;;;;;;21013620;28;20379;-78
